Time;durP1;ratioP1;P1;durP2;ratioP2;P2;SDS_P1;SDS_P2;PMS_P1;PMS_P2;Temp;Humidity;BMP_temperature;BMP_pressure;BME280_temperature;BME280_humidity;BME280_pressure;Samples;Min_cycle;Max_cycle;Signal;HPM_P1;HPM_P2
2023/07/20 00:01:55;;;;;;;2.47;2.38;;;20.30;99.90;;;20.63;84.64;101375.88;5055480;28;20536;-69
2023/07/20 00:04:24;;;;;;;3.03;2.92;;;20.20;99.90;;;20.72;84.29;101369.28;5055633;28;20045;-70
2023/07/20 00:06:52;;;;;;;2.80;2.70;;;20.30;99.90;;;20.66;84.54;101373.09;5055330;28;20064;-69
2023/07/20 00:09:21;;;;;;;2.55;2.45;;;20.30;99.90;;;20.72;84.13;101379.16;5053991;28;20052;-69
2023/07/20 00:11:53;;;;;;;2.80;2.70;;;20.40;99.90;;;20.63;83.97;101383.09;5055468;28;20073;-69
2023/07/20 00:14:22;;;;;;;2.67;2.58;;;20.20;99.90;;;20.53;83.88;101373.59;5055250;28;20041;-69
2023/07/20 00:16:55;;;;;;;2.45;2.35;;;20.20;99.90;;;19.73;84.20;101266.38;5055142;28;20203;-69
2023/07/20 00:19:26;;;;;;;2.97;2.88;;;20.10;99.90;;;20.53;84.17;101389.72;5051764;28;20052;-69
2023/07/20 00:21:54;;;;;;;2.60;2.50;;;20.10;99.90;;;20.58;83.91;101387.75;5055632;28;20059;-69
2023/07/20 00:24:24;;;;;;;2.47;2.38;;;20.20;99.90;;;20.55;83.81;101394.13;5055109;28;20398;-70
2023/07/20 00:26:54;;;;;;;2.42;2.33;;;20.20;99.90;;;20.50;84.17;101388.03;5054921;28;20048;-70
2023/07/20 00:29:22;;;;;;;2.50;2.40;;;20.20;99.90;;;20.44;84.21;101390.94;5055105;28;20122;-69
2023/07/20 00:31:50;;;;;;;2.75;2.65;;;20.10;99.90;;;20.49;84.07;101393.47;5054836;28;20041;-69
2023/07/20 00:34:19;;;;;;;2.60;2.50;;;20.10;99.90;;;20.45;83.54;101390.03;5053236;28;20669;-69
2023/07/20 00:36:48;;;;;;;2.40;2.30;;;20.10;99.90;;;20.29;83.59;101383.44;5067121;28;20545;-69
2023/07/20 00:39:17;;;;;;;2.47;2.38;;;20.00;99.90;;;20.29;83.81;101375.38;5066763;28;20045;-69
2023/07/20 00:41:45;;;;;;;2.63;2.53;;;20.00;99.90;;;20.22;84.15;101387.28;5053649;28;20052;-69
2023/07/20 00:44:15;;;;;;;2.28;2.17;;;19.90;99.90;;;20.18;84.17;101392.78;5051088;28;20065;-69
2023/07/20 00:46:44;;;;;;;2.78;2.67;;;19.80;99.90;;;20.13;83.84;101387.56;5070163;28;20049;-69
2023/07/20 00:49:12;;;;;;;2.38;2.28;;;19.70;99.90;;;20.09;84.60;101385.06;5054793;28;20041;-69
2023/07/20 00:51:41;;;;;;;2.50;2.40;;;19.70;99.90;;;20.09;84.63;101390.44;5069227;28;20127;-69
2023/07/20 00:54:10;;;;;;;2.30;2.20;;;19.70;99.90;;;20.01;84.36;101379.97;5054720;28;20037;-69
2023/07/20 00:56:39;;;;;;;2.72;2.63;;;19.60;99.90;;;19.91;84.24;101388.38;5053384;28;20053;-69
2023/07/20 00:59:08;;;;;;;2.70;2.60;;;19.50;99.90;;;19.85;84.52;101386.78;5053353;28;20045;-69
2023/07/20 01:01:37;;;;;;;2.40;2.30;;;19.40;99.90;;;19.78;84.47;101371.81;5054323;28;20053;-69
2023/07/20 01:04:06;;;;;;;2.53;2.42;;;19.40;99.90;;;19.88;84.63;101386.66;5053378;28;20051;-69
2023/07/20 01:06:44;;;;;;;2.35;2.25;;;19.40;99.90;;;19.71;84.36;101378.31;5050950;28;20060;-69
2023/07/20 01:09:18;;;;;;;2.42;2.33;;;19.40;99.90;;;19.73;84.44;101385.38;5054512;28;20080;-69
2023/07/20 01:12:04;;;;;;;2.40;2.30;;;19.30;99.90;;;19.72;84.86;101380.06;5054456;28;20045;-69
2023/07/20 01:14:33;;;;;;;2.58;2.47;;;19.20;99.90;;;19.68;84.89;101379.31;5053279;28;20056;-69
2023/07/20 01:17:03;;;;;;;2.67;2.58;;;19.20;99.90;;;19.63;84.40;101383.94;5054086;28;20397;-69
2023/07/20 01:19:32;;;;;;;2.60;2.50;;;19.20;99.90;;;19.50;84.46;101377.22;5069618;28;20053;-69
2023/07/20 01:22:10;;;;;;;2.30;2.20;;;19.20;99.90;;;19.48;84.52;101388.94;5050264;28;20402;-69
2023/07/20 01:25:02;;;;;;;2.40;2.30;;;19.10;99.90;;;19.42;84.44;101392.69;5052982;28;20053;-69
2023/07/20 01:27:58;;;;;;;2.30;2.20;;;19.00;99.90;;;19.37;84.68;101388.41;5051842;28;20056;-69
2023/07/20 01:30:57;;;;;;;2.38;2.28;;;19.00;99.90;;;19.24;85.35;101389.69;5052093;28;20045;-69
2023/07/20 01:33:29;;;;;;;2.50;2.40;;;18.80;99.90;;;19.26;85.65;101393.22;5052111;28;20505;-69
2023/07/20 01:36:00;;;;;;;2.67;2.58;;;18.90;99.90;;;19.27;86.12;101392.28;5054032;28;20051;-71
2023/07/20 01:38:30;;;;;;;2.70;2.60;;;18.90;99.90;;;19.24;85.90;101398.59;5049899;28;20567;-71
2023/07/20 01:40:59;;;;;;;2.20;2.10;;;18.80;99.90;;;19.17;85.58;101405.09;5050277;28;20044;-71
2023/07/20 01:43:27;;;;;;;2.38;2.28;;;18.70;99.90;;;19.09;85.67;101390.16;5053780;28;20072;-71
2023/07/20 01:45:56;;;;;;;2.30;2.20;;;18.70;99.90;;;19.13;85.65;101389.13;5053729;28;20106;-71
2023/07/20 01:48:26;;;;;;;2.35;2.25;;;18.70;99.90;;;18.48;85.56;101279.47;5053378;28;20498;-71
2023/07/20 01:50:54;;;;;;;2.30;2.20;;;18.70;99.90;;;19.02;85.89;101373.41;5053402;28;20053;-71
2023/07/20 01:53:23;;;;;;;2.63;2.53;;;18.70;99.90;;;19.24;85.82;101393.22;5053581;28;20064;-71
2023/07/20 01:55:54;;;;;;;2.20;2.10;;;18.80;99.90;;;19.23;85.67;101396.88;5053484;28;20391;-71
2023/07/20 01:58:22;;;;;;;2.42;2.33;;;18.80;99.90;;;19.16;85.42;101398.00;5051886;28;20060;-71
2023/07/20 02:00:51;;;;;;;2.28;2.17;;;18.80;99.90;;;19.11;85.48;101396.34;5068775;28;20052;-71
2023/07/20 02:03:23;;;;;;;2.55;2.45;;;18.70;99.90;;;19.07;85.39;101403.63;5060757;28;20033;-71
2023/07/20 02:05:53;;;;;;;2.40;2.30;;;18.70;99.90;;;19.08;85.77;101400.03;5053468;28;20056;-70
2023/07/20 02:08:21;;;;;;;2.60;2.50;;;18.70;99.90;;;19.18;86.27;101395.25;5053421;28;20044;-71
2023/07/20 02:10:50;;;;;;;2.47;2.38;;;18.70;99.90;;;19.25;86.24;101391.44;5053026;28;20063;-71
2023/07/20 02:13:18;;;;;;;2.20;2.10;;;18.80;99.90;;;19.19;86.24;101391.63;5051978;28;20060;-71
2023/07/20 02:15:49;;;;;;;2.40;2.30;;;18.80;99.90;;;19.21;85.61;101392.47;5051849;28;20114;-71
2023/07/20 02:18:17;;;;;;;2.30;2.20;;;18.80;99.90;;;19.25;85.47;101396.81;5065343;28;20053;-71
2023/07/20 02:20:47;;;;;;;2.63;2.53;;;18.80;99.90;;;19.29;85.26;101393.09;5048111;28;20056;-71
2023/07/20 02:23:17;;;;;;;2.72;2.63;;;18.90;99.90;;;19.33;85.21;101394.78;5053239;28;20120;-71
2023/07/20 02:25:46;;;;;;;2.60;2.50;;;18.90;99.90;;;18.74;84.75;101290.25;5050028;28;20049;-71
2023/07/20 02:28:15;;;;;;;2.30;2.20;;;18.90;99.90;;;19.42;84.28;101395.38;5053085;28;20036;-71
2023/07/20 02:30:44;;;;;;;2.60;2.50;;;19.00;99.90;;;19.51;83.51;101399.59;5051673;28;20429;-71
2023/07/20 02:33:12;;;;;;;2.20;2.10;;;19.10;99.90;;;19.44;83.34;101389.94;5052847;28;20056;-71
2023/07/20 02:35:42;;;;;;;2.60;2.50;;;19.20;99.90;;;19.44;83.45;101389.94;5052950;28;20051;-71
2023/07/20 02:38:10;;;;;;;2.40;2.30;;;19.30;99.90;;;19.57;83.83;101410.09;5051710;28;20053;-71
2023/07/20 02:40:40;;;;;;;2.40;2.30;;;19.30;99.90;;;19.56;83.96;101403.88;5064255;28;20063;-71
2023/07/20 02:43:09;;;;;;;2.47;2.38;;;19.30;99.90;;;19.57;83.94;101400.25;5064991;28;20045;-71
2023/07/20 02:45:42;;;;;;;2.22;2.13;;;19.30;99.90;;;19.60;84.04;101407.31;5051581;28;20470;-71
2023/07/20 02:48:11;;;;;;;2.20;2.10;;;19.30;99.90;;;19.46;84.08;101380.06;5052463;28;20049;-71
2023/07/20 02:50:39;;;;;;;2.20;2.10;;;19.20;99.90;;;19.55;83.83;101403.94;5051462;28;20132;-71
2023/07/20 02:53:07;;;;;;;2.45;2.35;;;19.20;99.90;;;19.43;83.85;101401.63;5052784;28;20063;-71
2023/07/20 02:55:36;;;;;;;2.30;2.20;;;19.10;99.90;;;19.29;83.93;101410.09;5051488;28;20037;-71
2023/07/20 02:58:06;;;;;;;2.28;2.17;;;19.00;99.90;;;19.32;83.76;101417.13;5051402;28;20131;-71
2023/07/20 03:00:34;;;;;;;2.30;2.20;;;19.00;99.90;;;19.20;84.29;101420.22;5047487;28;20401;-71
2023/07/20 03:03:02;;;;;;;2.50;2.40;;;18.80;99.90;;;19.01;84.51;101416.34;5052736;28;20418;-71
2023/07/20 03:05:31;;;;;;;2.38;2.28;;;18.70;99.90;;;19.03;85.08;101422.56;5049175;28;20078;-71
2023/07/20 03:08:02;;;;;;;2.40;2.30;;;18.70;99.90;;;19.09;84.88;101423.22;5067995;28;20049;-71
2023/07/20 03:10:30;;;;;;;2.30;2.20;;;18.70;99.90;;;18.85;84.82;101411.44;5062550;28;20462;-71
2023/07/20 03:12:59;;;;;;;2.55;2.45;;;18.60;99.90;;;18.93;85.00;101427.28;5056337;28;20098;-71
2023/07/20 03:15:29;;;;;;;2.50;2.40;;;18.60;99.90;;;18.83;85.12;101424.00;5055318;28;20045;-71
2023/07/20 03:17:58;;;;;;;2.72;2.63;;;18.40;99.90;;;18.75;85.37;101420.69;5055319;28;20060;-71
2023/07/20 03:20:29;;;;;;;2.83;2.72;;;18.30;99.90;;;18.73;85.96;101421.66;5048221;28;20042;-71
2023/07/20 03:22:57;;;;;;;2.40;2.30;;;18.30;99.90;;;18.67;85.88;101429.84;5056243;28;20044;-70
2023/07/20 03:25:26;;;;;;;2.58;2.47;;;18.20;99.90;;;18.58;85.79;101422.09;5056088;28;20565;-71
2023/07/20 03:27:56;;;;;;;2.60;2.50;;;18.20;99.90;;;18.56;85.64;101432.81;5056440;28;20055;-71
2023/07/20 03:30:25;;;;;;;2.40;2.30;;;18.20;99.90;;;18.53;86.30;101435.59;5055186;28;20056;-71
2023/07/20 03:32:55;;;;;;;2.25;2.15;;;18.10;99.90;;;18.53;86.22;101427.56;5053839;28;20064;-71
2023/07/20 03:35:24;;;;;;;2.40;2.30;;;18.10;99.90;;;18.49;86.03;101436.63;5071663;28;20045;-70
2023/07/20 03:37:52;;;;;;;2.90;2.80;;;18.10;99.90;;;18.59;85.54;101439.91;5056212;28;20064;-71
2023/07/20 03:40:20;;;;;;;2.60;2.50;;;18.10;99.90;;;18.52;85.83;101438.34;5054493;28;20048;-71
2023/07/20 03:42:49;;;;;;;2.38;2.28;;;18.10;99.90;;;18.51;86.25;101437.44;5052572;28;20044;-71
2023/07/20 03:45:18;;;;;;;2.50;2.40;;;18.10;99.90;;;18.51;86.84;101434.78;5054759;28;20379;-71
2023/07/20 03:47:48;;;;;;;2.53;2.42;;;18.10;99.90;;;18.53;87.27;101438.28;5069117;28;20418;-71
2023/07/20 03:50:18;;;;;;;2.53;2.42;;;18.10;99.90;;;18.57;87.96;101436.41;5055937;28;20052;-71
2023/07/20 03:52:46;;;;;;;2.65;2.55;;;18.20;99.90;;;18.50;87.81;101437.50;5055639;28;20486;-71
2023/07/20 03:55:15;;;;;;;2.60;2.50;;;18.10;99.90;;;18.45;87.22;101429.56;5055851;28;20099;-71
2023/07/20 03:57:44;;;;;;;2.50;2.40;;;18.10;99.90;;;18.49;87.32;101444.66;5054457;28;20053;-71
2023/07/20 04:00:14;;;;;;;2.75;2.65;;;18.10;99.90;;;18.61;87.08;101441.63;5054351;28;20525;-71
2023/07/20 04:02:42;;;;;;;2.72;2.63;;;18.20;99.90;;;18.68;86.78;101436.97;5055473;28;20056;-71
2023/07/20 04:05:11;;;;;;;2.50;2.40;;;18.20;99.90;;;18.73;86.49;101438.63;5042813;28;20132;-70
2023/07/20 04:07:41;;;;;;;2.70;2.60;;;18.30;99.90;;;18.70;86.18;101438.69;5055792;28;20566;-71
2023/07/20 04:10:10;;;;;;;2.50;2.40;;;18.30;99.90;;;18.69;86.40;101434.25;5055377;28;20418;-71
2023/07/20 04:12:39;;;;;;;2.88;2.78;;;18.30;99.90;;;18.60;86.22;101417.56;5055269;28;20114;-71
2023/07/20 04:15:09;;;;;;;2.80;2.70;;;18.30;99.90;;;18.13;85.84;101332.25;5055570;28;20075;-71
2023/07/20 04:17:37;;;;;;;2.60;2.50;;;18.30;99.90;;;18.66;85.46;101465.63;5053700;28;20060;-71
2023/07/20 04:20:08;;;;;;;2.50;2.40;;;18.30;99.90;;;18.69;85.59;101439.63;5055100;28;20544;-71
2023/07/20 04:22:36;;;;;;;2.70;2.60;;;18.30;99.90;;;18.76;85.25;101427.78;5055422;28;20421;-71
2023/07/20 04:25:09;;;;;;;2.40;2.30;;;18.40;99.90;;;18.87;85.37;101439.06;5067268;28;20443;-71
2023/07/20 04:27:38;;;;;;;2.67;2.58;;;18.50;99.90;;;18.82;85.05;101438.34;5054026;28;20053;-71
2023/07/20 04:30:09;;;;;;;2.53;2.42;;;18.50;99.90;;;18.08;84.41;101310.09;5055192;28;20072;-71
2023/07/20 04:32:46;;;;;;;2.60;2.50;;;18.50;99.90;;;18.73;85.01;101425.22;5062401;28;20494;-70
2023/07/20 04:35:27;;;;;;;2.90;2.80;;;18.40;99.90;;;18.62;85.57;101440.69;5050113;28;20045;-70
2023/07/20 04:37:55;;;;;;;2.72;2.63;;;18.20;99.90;;;18.60;86.38;101442.53;5053161;28;20045;-71
2023/07/20 04:40:25;;;;;;;2.80;2.70;;;18.20;99.90;;;18.59;86.71;101437.22;5053657;28;20045;-71
2023/07/20 04:42:54;;;;;;;2.83;2.72;;;18.20;99.90;;;18.65;87.15;101443.31;5054970;28;20091;-72
2023/07/20 04:45:24;;;;;;;2.75;2.65;;;18.20;99.90;;;18.68;87.11;101440.53;5053832;28;20597;-71
2023/07/20 04:47:52;;;;;;;2.65;2.55;;;18.30;99.90;;;18.69;87.34;101449.47;5066248;28;20049;-71
2023/07/20 04:50:21;;;;;;;2.67;2.58;;;18.30;99.90;;;18.64;87.84;101446.91;5050041;28;20044;-71
2023/07/20 04:52:51;;;;;;;2.70;2.60;;;18.30;99.90;;;18.69;87.62;101447.66;5053560;28;20052;-70
2023/07/20 04:55:21;;;;;;;2.40;2.30;;;18.30;99.90;;;18.71;87.43;101447.63;5051707;28;20037;-71
2023/07/20 04:57:51;;;;;;;2.70;2.60;;;18.30;99.90;;;18.71;87.47;101450.28;5054436;28;20379;-70
2023/07/20 05:00:21;;;;;;;2.95;2.85;;;18.30;99.90;;;18.77;86.93;101452.81;5053517;28;20053;-71
2023/07/20 05:02:50;;;;;;;2.92;2.83;;;18.30;99.90;;;18.73;86.47;101473.47;5054524;28;20106;-71
2023/07/20 05:05:20;;;;;;;2.90;2.80;;;18.40;99.90;;;18.73;86.15;101441.28;5053394;28;20052;-71
2023/07/20 05:07:48;;;;;;;2.88;2.78;;;18.40;99.90;;;18.61;86.35;101436.28;5066119;28;20517;-71
2023/07/20 05:10:17;;;;;;;2.70;2.60;;;18.30;99.90;;;18.76;86.74;101457.28;5053257;28;20136;-71
2023/07/20 05:12:45;;;;;;;2.70;2.60;;;18.30;99.90;;;18.80;87.25;101452.69;5050656;28;20053;-71
2023/07/20 05:15:15;;;;;;;2.45;2.35;;;18.40;99.90;;;18.87;87.61;101457.84;5053105;28;20044;-71
2023/07/20 05:17:44;;;;;;;3.35;3.22;;;18.50;99.90;;;19.07;86.85;101457.25;5053028;28;20478;-71
2023/07/20 05:20:13;;;;;;;2.88;2.78;;;18.60;99.90;;;19.08;86.85;101434.88;5068603;28;20406;-71
2023/07/20 05:22:42;;;;;;;2.50;2.40;;;18.80;99.90;;;19.24;86.13;101454.09;5052840;28;20144;-71
2023/07/20 05:25:11;;;;;;;2.65;2.55;;;18.80;99.90;;;19.20;85.40;101447.91;5053967;28;20048;-71
2023/07/20 05:27:41;;;;;;;2.73;2.63;;;18.90;99.90;;;19.33;85.33;101461.88;5053853;28;20048;-71
2023/07/20 05:30:10;;;;;;;2.83;2.72;;;18.90;99.90;;;19.42;85.39;101448.16;5053709;28;20291;-71
2023/07/20 05:32:40;;;;;;;2.67;2.58;;;19.00;99.90;;;19.44;85.34;101468.66;5053009;28;20444;-71
2023/07/20 05:35:11;;;;;;;2.50;2.40;;;19.10;99.90;;;19.51;85.67;101453.25;5053731;28;20037;-71
2023/07/20 05:37:39;;;;;;;2.95;2.85;;;19.10;99.90;;;19.60;85.77;101452.97;5053967;28;20065;-71
2023/07/20 05:40:11;;;;;;;2.50;2.40;;;19.20;99.90;;;19.67;85.71;101454.50;5052606;28;20461;-71
2023/07/20 05:42:40;;;;;;;2.72;2.63;;;19.30;99.90;;;19.70;85.65;101460.66;5053464;28;20549;-71
2023/07/20 05:45:09;;;;;;;3.22;3.13;;;19.30;99.90;;;19.76;85.46;101454.22;5053774;28;20040;-71
2023/07/20 05:47:39;;;;;;;3.58;3.38;;;19.40;99.90;;;19.80;86.12;101453.19;5049582;28;20521;-71
2023/07/20 05:50:08;;;;;;;2.58;2.47;;;19.40;99.90;;;19.91;86.20;101456.41;5053962;28;20132;-71
2023/07/20 05:52:38;;;;;;;2.67;2.58;;;19.50;99.90;;;20.03;86.24;101461.38;5053256;28;20045;-71
2023/07/20 05:55:08;;;;;;;2.97;2.87;;;19.60;99.90;;;20.13;86.54;101465.47;5053272;28;20132;-71
2023/07/20 05:57:41;;;;;;;2.67;2.58;;;19.80;99.90;;;20.27;86.18;101468.59;5053189;28;20130;-72
2023/07/20 06:00:12;;;;;;;2.60;2.50;;;19.90;99.90;;;20.41;86.03;101465.44;5053542;28;20064;-72
2023/07/20 06:02:47;;;;;;;2.90;2.80;;;20.10;99.90;;;20.53;84.82;101465.88;5050186;28;20069;-72
2023/07/20 06:05:16;;;;;;;;;;;20.20;99.90;;;20.51;81.92;101465.06;5053819;28;20045;-72
2023/07/20 06:07:44;;;;;;;2.60;2.50;;;20.20;99.90;;;20.43;80.45;101451.00;5053086;28;20325;-72
2023/07/20 06:10:13;;;;;;;2.65;2.55;;;20.10;99.90;;;20.33;80.26;101464.81;5053072;28;20045;-72
2023/07/20 06:12:41;;;;;;;2.45;2.35;;;20.00;99.90;;;20.44;80.77;101471.56;5053231;28;20037;-72
2023/07/20 06:15:27;;;;;;;2.53;2.42;;;20.10;99.90;;;20.57;80.48;101464.84;5060583;28;20060;-72
2023/07/20 06:17:57;;;;;;;2.80;2.70;;;20.20;99.90;;;20.77;80.56;101461.41;5050656;28;20064;-72
2023/07/20 06:20:26;;;;;;;2.75;2.65;;;20.40;99.90;;;20.90;78.66;101473.50;5052950;28;20040;-72
2023/07/20 06:22:55;;;;;;;2.40;2.30;;;20.60;99.90;;;20.84;78.87;101476.41;5053001;28;20045;-72
2023/07/20 06:25:23;;;;;;;3.13;3.03;;;20.60;99.90;;;20.96;77.22;101481.34;5052779;28;20049;-72
2023/07/20 06:27:52;;;;;;;2.72;2.63;;;20.70;99.90;;;20.41;77.13;101374.06;5052609;28;20119;-71
2023/07/20 06:30:20;;;;;;;2.83;2.72;;;20.70;99.90;;;21.02;76.96;101481.13;5052944;28;20132;-72
2023/07/20 06:32:49;;;;;;;2.58;2.47;;;20.70;99.90;;;21.08;77.01;101478.19;5047942;28;20048;-71
2023/07/20 06:35:19;;;;;;;2.38;2.28;;;20.80;99.90;;;21.13;76.25;101484.31;5053163;28;20059;-71
2023/07/20 06:37:48;;;;;;;2.47;2.38;;;20.80;99.90;;;21.10;75.45;101484.41;5053207;28;20041;-72
2023/07/20 06:40:17;;;;;;;2.70;2.60;;;20.80;99.90;;;21.18;75.38;101481.41;5052622;28;20815;-72
2023/07/20 06:42:48;;;;;;;2.28;2.17;;;20.90;99.90;;;21.16;74.67;101484.16;5052540;28;20490;-72
2023/07/20 06:45:19;;;;;;;2.50;2.40;;;20.90;99.90;;;21.12;74.81;101476.25;5052402;28;20437;-72
2023/07/20 06:47:48;;;;;;;2.33;2.22;;;20.90;99.90;;;21.19;74.67;101485.88;5052730;28;20119;-72
2023/07/20 06:50:17;;;;;;;2.50;2.40;;;20.80;99.90;;;21.16;73.61;101484.16;5048877;28;20486;-72
2023/07/20 06:52:48;;;;;;;2.60;2.50;;;20.80;99.90;;;21.32;73.28;101487.16;5052455;28;20056;-72
2023/07/20 06:55:19;;;;;;;2.42;2.33;;;21.00;99.90;;;21.42;72.10;101488.56;5052755;28;20131;-72
2023/07/20 06:57:54;;;;;;;2.50;2.40;;;21.10;99.90;;;21.50;71.83;101487.28;5052414;28;20453;-72
2023/07/20 07:00:26;;;;;;;2.50;2.40;;;21.20;99.90;;;21.61;68.98;101489.56;5052436;28;20048;-72
2023/07/20 07:02:55;;;;;;;2.30;2.20;;;21.30;99.90;;;21.66;68.62;101494.78;5048579;28;20040;-72
2023/07/20 07:05:23;;;;;;;2.33;2.22;;;21.40;99.90;;;21.48;68.16;101491.91;5052623;28;20122;-72
2023/07/20 07:07:54;;;;;;;2.40;2.30;;;21.30;99.90;;;21.58;69.25;101471.72;5052563;28;20041;-72
2023/07/20 07:10:22;;;;;;;2.30;2.20;;;21.40;99.90;;;21.79;68.56;101486.16;5052621;28;20041;-72
2023/07/20 07:12:51;;;;;;;2.38;2.28;;;21.50;99.90;;;21.90;68.53;101483.94;5052222;28;20060;-72
2023/07/20 07:15:19;;;;;;;2.50;2.40;;;21.60;99.90;;;21.90;66.92;101489.31;5052296;28;20049;-72
2023/07/20 07:17:50;;;;;;;2.40;2.30;;;21.60;99.90;;;21.90;66.72;101493.81;5052291;28;20056;-72
2023/07/20 07:20:19;;;;;;;2.33;2.22;;;21.60;99.90;;;21.84;67.43;101499.44;5052137;28;20068;-73
2023/07/20 07:22:49;;;;;;;2.45;2.35;;;21.50;99.90;;;21.74;67.09;101498.06;5048410;28;20041;-72
2023/07/20 07:25:20;;;;;;;2.47;2.38;;;21.40;99.90;;;21.79;67.30;101479.88;5052515;28;20065;-72
2023/07/20 07:27:52;;;;;;;2.30;2.20;;;21.60;99.90;;;21.97;67.07;101489.94;5052757;28;20044;-72
2023/07/20 07:30:21;;;;;;;2.38;2.28;;;21.60;99.90;;;21.97;66.99;101493.50;5052340;28;20045;-72
2023/07/20 07:32:49;;;;;;;7.15;6.75;;;21.70;99.90;;;21.88;66.70;101474.13;5052268;28;20041;-72
2023/07/20 07:35:18;;;;;;;2.30;2.20;;;21.70;99.90;;;22.06;66.34;101493.13;5051792;28;20053;-72
2023/07/20 07:37:46;;;;;;;2.30;2.20;;;21.70;99.90;;;22.15;65.57;101499.94;5052052;28;20049;-72
2023/07/20 07:40:35;;;;;;;2.47;2.38;;;21.80;99.90;;;22.15;66.00;101503.53;5050449;28;20441;-71
2023/07/20 07:43:03;;;;;;;2.60;2.50;;;21.80;99.90;;;22.12;65.72;101505.47;5051862;28;20094;-72
2023/07/20 07:45:35;;;;;;;2.50;2.40;;;21.80;99.90;;;22.09;65.83;101503.78;5052014;28;20691;-71
2023/07/20 07:48:04;;;;;;;2.55;2.45;;;21.80;99.90;;;21.94;66.46;101509.81;5048323;28;20045;-72
2023/07/20 07:50:33;;;;;;;2.28;2.17;;;21.60;99.90;;;21.70;65.78;101507.19;5051881;28;20452;-72
2023/07/20 07:53:01;;;;;;;2.30;2.20;;;21.40;99.90;;;21.75;65.38;101492.59;5051699;28;20090;-72
2023/07/20 07:55:30;;;;;;;2.35;2.25;;;21.50;99.90;;;22.01;66.17;101505.91;5053084;28;20099;-71
2023/07/20 07:58:00;;;;;;;2.42;2.33;;;21.60;99.90;;;22.25;65.00;101502.19;5055595;28;20052;-72
2023/07/20 08:00:28;;;;;;;2.20;2.10;;;21.90;99.90;;;22.08;62.31;101499.34;5055526;28;20081;-72
2023/07/20 08:02:56;;;;;;;2.50;2.40;;;21.90;99.90;;;21.98;62.59;101500.66;5055844;28;20407;-72
2023/07/20 08:05:26;;;;;;;2.55;2.45;;;21.80;99.90;;;21.87;63.45;101500.22;5055345;28;20100;-72
2023/07/20 08:07:54;;;;;;;2.90;2.80;;;21.60;99.90;;;21.76;64.52;101506.94;5055283;28;20049;-72
2023/07/20 08:10:23;;;;;;;2.50;2.40;;;21.50;99.90;;;21.80;63.55;101505.88;5050511;28;20493;-72
2023/07/20 08:12:52;;;;;;;2.58;2.47;;;21.60;99.90;;;21.67;62.68;101501.91;5052147;28;20053;-72
2023/07/20 08:15:22;;;;;;;2.95;2.85;;;21.40;99.90;;;21.35;65.34;101508.59;5055558;28;20087;-72
2023/07/20 08:17:51;;;;;;;2.67;2.58;;;21.20;99.90;;;21.48;65.05;101504.47;5052301;28;20053;-72
2023/07/20 08:20:26;;;;;;;2.65;2.55;;;21.20;99.90;;;21.47;65.61;101505.38;5055701;28;20033;-73
2023/07/20 08:22:55;;;;;;;2.95;2.85;;;21.20;99.90;;;21.47;64.42;101506.28;5054888;28;20132;-72
2023/07/20 08:25:24;;;;;;;2.60;2.50;;;21.20;99.90;;;21.40;64.38;101511.97;5055076;28;20049;-72
2023/07/20 08:27:52;;;;;;;2.55;2.45;;;21.10;99.90;;;21.56;64.44;101510.44;5051391;28;20295;-72
2023/07/20 08:30:24;;;;;;;3.70;3.45;;;21.30;99.90;;;21.92;63.48;101503.59;5054784;28;20037;-73
2023/07/20 08:32:52;;;;;;;2.60;2.50;;;21.60;99.90;;;22.07;62.41;101505.66;5054914;28;20041;-72
2023/07/20 08:35:21;;;;;;;2.72;2.63;;;21.80;99.90;;;22.25;61.60;101507.59;5055257;28;20049;-72
2023/07/20 08:37:50;;;;;;;2.85;2.67;;;22.00;99.90;;;22.19;61.23;101513.22;5055385;28;20079;-72
2023/07/20 08:40:19;;;;;;;3.53;3.35;;;22.00;99.90;;;22.31;60.68;101511.84;5054766;28;20469;-73
2023/07/20 08:42:48;;;;;;;2.40;2.30;;;22.10;99.90;;;22.45;60.03;101514.84;5054639;28;20076;-72
2023/07/20 08:45:18;;;;;;;2.70;2.60;;;22.20;99.90;;;22.66;59.53;101513.03;5055019;28;20044;-72
2023/07/20 08:47:49;;;;;;;2.28;2.17;;;22.40;99.90;;;22.91;59.74;101497.53;5050982;28;20402;-72
2023/07/20 08:50:19;;;;;;;2.90;2.80;;;22.70;99.90;;;22.49;56.83;101500.28;5051771;28;20073;-72
2023/07/20 08:52:49;;;;;;;2.50;2.40;;;22.40;99.90;;;22.51;58.01;101502.91;5054504;28;20498;-72
2023/07/20 08:55:18;;;;;;;2.33;2.22;;;22.30;99.90;;;22.81;58.98;101505.16;5054452;28;20084;-71
2023/07/20 08:57:49;;;;;;;2.83;2.72;;;22.40;99.90;;;23.16;58.37;101503.53;5054474;28;20049;-71
2023/07/20 09:00:20;;;;;;;2.30;2.20;;;22.80;99.90;;;23.14;57.66;101500.03;5054433;28;20052;-72
2023/07/20 09:02:53;;;;;;;2.10;2.00;;;22.90;99.90;;;23.24;56.75;101504.06;5054308;28;20146;-71
2023/07/20 09:05:24;;;;;;;2.88;2.78;;;23.00;99.90;;;23.03;56.22;101529.34;5051153;28;20033;-73
2023/07/20 09:07:54;;;;;;;2.50;2.40;;;22.80;99.90;;;23.33;56.87;101509.06;5053044;28;20041;-72
2023/07/20 09:10:24;;;;;;;2.70;2.60;;;23.00;99.90;;;23.59;54.80;101508.72;5054228;28;20045;-72
2023/07/20 09:12:52;;;;;;;2.38;2.28;;;23.30;99.90;;;23.56;54.48;101503.44;5054379;28;20529;-72
2023/07/20 09:15:23;;;;;;;3.25;3.15;;;23.40;99.90;;;23.44;55.89;101501.31;5054335;28;20039;-72
2023/07/20 09:17:54;;;;;;;2.28;2.17;;;23.30;99.90;;;23.58;54.86;101515.06;5054072;28;20049;-72
2023/07/20 09:20:23;;;;;;;2.33;2.22;;;23.40;99.90;;;23.83;56.16;101507.53;5054069;28;20051;-72
2023/07/20 09:22:53;;;;;;;2.30;2.20;;;23.60;99.90;;;23.87;55.14;101463.19;5053839;28;20029;-72
2023/07/20 09:25:23;;;;;;;2.47;2.38;;;23.90;99.90;;;24.38;54.92;101511.09;5051236;28;20049;-72
2023/07/20 09:27:56;;;;;;;2.20;2.10;;;24.10;99.90;;;24.49;53.55;101489.75;5053894;28;20064;-72
2023/07/20 09:30:27;;;;;;;2.28;2.17;;;24.40;99.90;;;24.63;53.41;101510.69;5053845;28;20044;-73
2023/07/20 09:33:00;;;;;;;1.98;1.88;;;24.40;99.90;;;24.65;52.02;101509.66;5050105;28;20045;-72
2023/07/20 09:35:29;;;;;;;2.30;2.20;;;24.50;99.90;;;24.65;51.29;101519.59;5054169;28;20501;-72
2023/07/20 09:38:10;;;;;;;2.20;2.10;;;24.50;99.90;;;24.93;52.34;101522.66;5053690;28;20053;-72
2023/07/20 09:40:42;;;;;;;2.20;2.10;;;24.70;99.90;;;24.85;51.92;101516.78;5053522;28;20044;-72
2023/07/20 09:43:14;;;;;;;2.00;1.90;;;24.70;99.90;;;24.84;51.79;101515.88;5050198;28;20041;-72
2023/07/20 09:45:45;;;;;;;2.05;1.95;;;24.70;99.90;;;25.02;52.80;101517.63;5053464;28;20052;-72
2023/07/20 09:48:21;;;;;;;2.20;2.10;;;24.90;99.90;;;25.10;51.13;101522.63;5053508;28;20048;-72
2023/07/20 09:50:55;;;;;;;2.35;2.25;;;24.90;99.90;;;25.19;50.73;101522.09;5052406;28;20049;-73
2023/07/20 09:53:26;;;;;;;2.17;2.08;;;25.00;99.90;;;25.36;51.11;101519.34;5049908;28;20521;-72
2023/07/20 09:55:55;;;;;;;2.10;2.00;;;25.10;99.90;;;25.55;50.84;101514.69;5052108;28;20071;-73
2023/07/20 09:58:23;;;;;;;1.92;1.83;;;25.30;99.90;;;25.32;52.47;101523.19;5053306;28;20036;-73
2023/07/20 10:00:53;;;;;;;1.98;1.88;;;25.20;99.90;;;25.30;51.10;101502.56;5053132;28;20126;-73
2023/07/20 10:03:30;;;;;;;2.10;2.00;;;25.10;99.90;;;25.38;50.94;101522.84;5068135;28;20076;-73
2023/07/20 10:06:08;;;;;;;2.35;2.25;;;25.20;99.90;;;25.57;49.79;101517.34;5050034;28;20474;-73
2023/07/20 10:08:42;;;;;;;2.10;2.00;;;25.30;99.90;;;25.74;50.04;101512.72;5053298;28;20048;-73
2023/07/20 10:11:16;;;;;;;2.00;1.90;;;25.50;99.90;;;25.64;48.46;101513.31;5053296;28;20045;-73
2023/07/20 10:13:47;;;;;;;2.10;2.00;;;25.50;99.90;;;25.28;49.99;101518.03;5049176;28;20052;-72
2023/07/20 10:16:23;;;;;;;2.50;2.40;;;25.00;99.90;;;25.36;49.39;101510.38;5053314;28;20473;-72
2023/07/20 10:19:04;;;;;;;2.30;2.20;;;25.10;99.90;;;24.92;49.17;101513.66;5052566;28;20041;-72
2023/07/20 10:21:37;;;;;;;2.03;1.92;;;24.80;99.90;;;24.67;49.60;101506.88;5049853;28;20044;-72
2023/07/20 10:24:08;;;;;;;2.10;2.00;;;24.50;99.90;;;24.42;50.24;101509.09;5052636;28;20049;-72
2023/07/20 10:26:37;;;;;;;2.03;1.92;;;24.20;99.90;;;24.31;51.48;101509.66;5050441;28;20045;-73